sensor_id;sensor_type;location;lat;lon;timestamp;temperature;humidity
22940;DHT22;11636;52.086;5.090;2023-05-10T00:02:52;12.60;99.90
22940;DHT22;11636;52.086;5.090;2023-05-10T00:05:39;12.60;99.90
22940;DHT22;11636;52.086;5.090;2023-05-10T00:08:33;12.60;99.90
22940;DHT22;11636;52.086;5.090;2023-05-10T00:11:27;12.50;99.90
22940;DHT22;11636;52.086;5.090;2023-05-10T00:14:14;12.50;99.90
22940;DHT22;11636;52.086;5.090;2023-05-10T00:17:08;12.50;99.90
22940;DHT22;11636;52.086;5.090;2023-05-10T00:19:55;12.50;99.90
22940;DHT22;11636;52.086;5.090;2023-05-10T00:22:49;12.50;99.90
22940;DHT22;11636;52.086;5.090;2023-05-10T00:25:43;12.40;99.90
22940;DHT22;11636;52.086;5.090;2023-05-10T00:28:37;12.40;99.90
22940;DHT22;11636;52.086;5.090;2023-05-10T00:31:24;12.40;99.90
22940;DHT22;11636;52.086;5.090;2023-05-10T00:34:18;12.40;99.90
22940;DHT22;11636;52.086;5.090;2023-05-10T00:37:12;12.40;99.90
22940;DHT22;11636;52.086;5.090;2023-05-10T00:39:59;12.40;99.90
22940;DHT22;11636;52.086;5.090;2023-05-10T00:42:53;12.50;99.90
22940;DHT22;11636;52.086;5.090;2023-05-10T00:45:47;12.50;99.90
22940;DHT22;11636;52.086;5.090;2023-05-10T00:48:34;12.60;99.90
22940;DHT22;11636;52.086;5.090;2023-05-10T00:51:28;12.60;99.90
22940;DHT22;11636;52.086;5.090;2023-05-10T00:54:22;12.60;99.90
22940;DHT22;11636;52.086;5.090;2023-05-10T00:57:09;12.60;99.90
22940;DHT22;11636;52.086;5.090;2023-05-10T01:00:03;12.60;99.90
22940;DHT22;11636;52.086;5.090;2023-05-10T01:02:57;12.60;99.90
22940;DHT22;11636;52.086;5.090;2023-05-10T01:05:51;12.50;99.90
22940;DHT22;11636;52.086;5.090;2023-05-10T01:08:39;12.50;99.90
22940;DHT22;11636;52.086;5.090;2023-05-10T01:11:38;12.50;99.90
22940;DHT22;11636;52.086;5.090;2023-05-10T01:14:26;12.50;99.90
22940;DHT22;11636;52.086;5.090;2023-05-10T01:17:21;12.50;99.90
22940;DHT22;11636;52.086;5.090;2023-05-10T01:20:10;12.40;99.90
22940;DHT22;11636;52.086;5.090;2023-05-10T01:40:13;12.20;99.90
22940;DHT22;11636;52.086;5.090;2023-05-10T01:43:03;12.30;99.90
22940;DHT22;11636;52.086;5.090;2023-05-10T01:46:07;12.20;99.90
22940;DHT22;11636;52.086;5.090;2023-05-10T01:49:26;12.20;99.90
22940;DHT22;11636;52.086;5.090;2023-05-10T01:52:18;12.20;99.90
22940;DHT22;11636;52.086;5.090;2023-05-10T01:55:16;12.10;99.90
22940;DHT22;11636;52.086;5.090;2023-05-10T01:58:09;12.10;99.90
22940;DHT22;11636;52.086;5.090;2023-05-10T02:01:04;12.10;99.90
22940;DHT22;11636;52.086;5.090;2023-05-10T02:03:59;12.10;99.90
22940;DHT22;11636;52.086;5.090;2023-05-10T02:06:55;12.10;99.90
22940;DHT22;11636;52.086;5.090;2023-05-10T02:09:49;12.10;99.90
22940;DHT22;11636;52.086;5.090;2023-05-10T02:12:47;12.20;99.90
22940;DHT22;11636;52.086;5.090;2023-05-10T02:15:41;12.20;99.90
22940;DHT22;11636;52.086;5.090;2023-05-10T02:18:29;12.20;99.90
22940;DHT22;11636;52.086;5.090;2023-05-10T02:21:24;12.30;99.90
22940;DHT22;11636;52.086;5.090;2023-05-10T02:24:20;12.30;99.90
22940;DHT22;11636;52.086;5.090;2023-05-10T02:27:09;12.30;99.90
22940;DHT22;11636;52.086;5.090;2023-05-10T02:30:05;12.20;99.90
22940;DHT22;11636;52.086;5.090;2023-05-10T02:33:01;12.30;99.90
22940;DHT22;11636;52.086;5.090;2023-05-10T02:35:57;12.30;99.90
22940;DHT22;11636;52.086;5.090;2023-05-10T02:38:45;12.30;99.90
22940;DHT22;11636;52.086;5.090;2023-05-10T02:41:41;12.30;99.90
22940;DHT22;11636;52.086;5.090;2023-05-10T02:44:36;12.30;99.90
22940;DHT22;11636;52.086;5.090;2023-05-10T02:47:30;12.20;99.90
22940;DHT22;11636;52.086;5.090;2023-05-10T02:50:44;12.20;99.90
22940;DHT22;11636;52.086;5.090;2023-05-10T02:53:46;12.20;99.90
22940;DHT22;11636;52.086;5.090;2023-05-10T02:56:43;12.20;99.90
22940;DHT22;11636;52.086;5.090;2023-05-10T02:59:38;12.20;99.90
22940;DHT22;11636;52.086;5.090;2023-05-10T03:02:26;12.20;99.90
22940;DHT22;11636;52.086;5.090;2023-05-10T03:05:20;12.20;99.90
22940;DHT22;11636;52.086;5.090;2023-05-10T03:08:14;12.20;99.90
22940;DHT22;11636;52.086;5.090;2023-05-10T03:18:07;12.30;99.90
22940;DHT22;11636;52.086;5.090;2023-05-10T03:21:05;12.30;99.90
22940;DHT22;11636;52.086;5.090;2023-05-10T03:23:59;12.20;99.90
22940;DHT22;11636;52.086;5.090;2023-05-10T03:27:00;12.20;99.90
22940;DHT22;11636;52.086;5.090;2023-05-10T03:29:50;12.20;99.90
22940;DHT22;11636;52.086;5.090;2023-05-10T03:32:44;12.20;99.90
22940;DHT22;11636;52.086;5.090;2023-05-10T03:35:38;12.20;99.90
22940;DHT22;11636;52.086;5.090;2023-05-10T03:38:32;12.20;99.90
22940;DHT22;11636;52.086;5.090;2023-05-10T03:41:19;12.20;99.90
22940;DHT22;11636;52.086;5.090;2023-05-10T03:44:13;12.20;99.90
22940;DHT22;11636;52.086;5.090;2023-05-10T03:47:07;12.20;99.90
22940;DHT22;11636;52.086;5.090;2023-05-10T03:49:55;12.20;99.90
22940;DHT22;11636;52.086;5.090;2023-05-10T03:52:48;12.30;99.90
22940;DHT22;11636;52.086;5.090;2023-05-10T03:55:42;12.30;99.90
22940;DHT22;11636;52.086;5.090;2023-05-10T03:58:30;12.30;99.90
22940;DHT22;11636;52.086;5.090;2023-05-10T04:01:23;12.30;99.90
22940;DHT22;11636;52.086;5.090;2023-05-10T04:04:10;12.30;99.90
22940;DHT22;11636;52.086;5.090;2023-05-10T04:07:04;12.30;99.90
22940;DHT22;11636;52.086;5.090;2023-05-10T04:09:58;12.30;99.90
22940;DHT22;11636;52.086;5.090;2023-05-10T04:12:52;12.30;99.90
22940;DHT22;11636;52.086;5.090;2023-05-10T04:15:39;12.40;99.90
22940;DHT22;11636;52.086;5.090;2023-05-10T04:18:33;12.40;99.90
22940;DHT22;11636;52.086;5.090;2023-05-10T04:21:20;12.40;99.90
22940;DHT22;11636;52.086;5.090;2023-05-10T04:24:14;12.40;99.90
22940;DHT22;11636;52.086;5.090;2023-05-10T04:27:08;12.40;99.90
22940;DHT22;11636;52.086;5.090;2023-05-10T04:29:55;12.30;99.90
22940;DHT22;11636;52.086;5.090;2023-05-10T04:32:49;12.30;99.90
22940;DHT22;11636;52.086;5.090;2023-05-10T04:35:43;12.30;99.90
22940;DHT22;11636;52.086;5.090;2023-05-10T04:38:38;12.40;99.90
22940;DHT22;11636;52.086;5.090;2023-05-10T04:41:32;12.40;99.90
22940;DHT22;11636;52.086;5.090;2023-05-10T04:44:26;12.40;99.90
22940;DHT22;11636;52.086;5.090;2023-05-10T04:47:13;12.40;99.90
22940;DHT22;11636;52.086;5.090;2023-05-10T04:50:07;12.40;99.90
22940;DHT22;11636;52.086;5.090;2023-05-10T04:53:02;12.40;99.90
22940;DHT22;11636;52.086;5.090;2023-05-10T04:55:49;12.40;99.90
22940;DHT22;11636;52.086;5.090;2023-05-10T04:58:42;12.40;99.90
22940;DHT22;11636;52.086;5.090;2023-05-10T05:01:29;12.30;99.90
22940;DHT22;11636;52.086;5.090;2023-05-10T05:04:23;12.30;99.90
22940;DHT22;11636;52.086;5.090;2023-05-10T05:07:10;12.30;99.90
22940;DHT22;11636;52.086;5.090;2023-05-10T05:10:08;12.30;99.90
22940;DHT22;11636;52.086;5.090;2023-05-10T05:13:03;12.30;99.90
22940;DHT22;11636;52.086;5.090;2023-05-10T05:15:50;12.30;99.90
22940;DHT22;11636;52.086;5.090;2023-05-10T05:18:44;12.20;99.90
22940;DHT22;11636;52.086;5.090;2023-05-10T05:21:31;12.20;99.90
22940;DHT22;11636;52.086;5.090;2023-05-10T05:24:25;12.20;99.90
22940;DHT22;11636;52.086;5.090;2023-05-10T05:27:20;12.20;99.90
22940;DHT22;11636;52.086;5.090;2023-05-10T05:30:17;12.30;99.90
22940;DHT22;11636;52.086;5.090;2023-05-10T05:33:05;12.20;99.90
22940;DHT22;11636;52.086;5.090;2023-05-10T05:36:03;12.30;99.90
22940;DHT22;11636;52.086;5.090;2023-05-10T05:38:57;12.20;99.90
22940;DHT22;11636;52.086;5.090;2023-05-10T05:41:44;12.20;99.90
22940;DHT22;11636;52.086;5.090;2023-05-10T05:44:38;12.20;99.90
22940;DHT22;11636;52.086;5.090;2023-05-10T05:47:25;12.20;99.90
22940;DHT22;11636;52.086;5.090;2023-05-10T05:50:18;12.10;99.90
22940;DHT22;11636;52.086;5.090;2023-05-10T05:53:06;12.10;99.90
22940;DHT22;11636;52.086;5.090;2023-05-10T05:55:59;12.10;99.90
22940;DHT22;11636;52.086;5.090;2023-05-10T05:58:53;12.10;99.90
22940;DHT22;11636;52.086;5.090;2023-05-10T06:01:47;12.20;99.90
22940;DHT22;11636;52.086;5.090;2023-05-10T06:04:41;12.30;99.90
22940;DHT22;11636;52.086;5.090;2023-05-10T06:07:30;12.30;99.90
22940;DHT22;11636;52.086;5.090;2023-05-10T06:10:24;12.30;99.90
22940;DHT22;11636;52.086;5.090;2023-05-10T06:13:18;12.30;99.90
22940;DHT22;11636;52.086;5.090;2023-05-10T06:16:06;12.30;99.90
22940;DHT22;11636;52.086;5.090;2023-05-10T06:19:02;12.30;99.90
22940;DHT22;11636;52.086;5.090;2023-05-10T06:21:49;12.30;99.90
22940;DHT22;11636;52.086;5.090;2023-05-10T06:24:43;12.30;99.90
22940;DHT22;11636;52.086;5.090;2023-05-10T06:27:31;12.40;99.90
22940;DHT22;11636;52.086;5.090;2023-05-10T06:30:25;12.50;99.90
22940;DHT22;11636;52.086;5.090;2023-05-10T06:33:22;12.60;99.90
22940;DHT22;11636;52.086;5.090;2023-05-10T06:36:22;12.70;99.90
22940;DHT22;11636;52.086;5.090;2023-05-10T06:39:11;12.70;99.90
22940;DHT22;11636;52.086;5.090;2023-05-10T06:42:05;12.80;99.90
22940;DHT22;11636;52.086;5.090;2023-05-10T06:45:00;12.80;99.90
22940;DHT22;11636;52.086;5.090;2023-05-10T06:47:53;12.90;99.90
22940;DHT22;11636;52.086;5.090;2023-05-10T06:50:47;13.00;99.90
22940;DHT22;11636;52.086;5.090;2023-05-10T06:53:35;13.10;99.90
22940;DHT22;11636;52.086;5.090;2023-05-10T06:56:28;13.10;99.90
22940;DHT22;11636;52.086;5.090;2023-05-10T06:59:16;13.30;99.90
22940;DHT22;11636;52.086;5.090;2023-05-10T07:02:09;13.40;99.90
22940;DHT22;11636;52.086;5.090;2023-05-10T07:04:57;13.50;99.90
22940;DHT22;11636;52.086;5.090;2023-05-10T07:07:50;13.50;99.90
22940;DHT22;11636;52.086;5.090;2023-05-10T07:10:38;13.50;99.90
22940;DHT22;11636;52.086;5.090;2023-05-10T07:13:31;13.50;99.90
22940;DHT22;11636;52.086;5.090;2023-05-10T07:16:26;13.50;99.90
22940;DHT22;11636;52.086;5.090;2023-05-10T07:19:19;13.40;99.90
22940;DHT22;11636;52.086;5.090;2023-05-10T07:22:07;13.40;99.90
22940;DHT22;11636;52.086;5.090;2023-05-10T07:25:01;13.40;99.90
22940;DHT22;11636;52.086;5.090;2023-05-10T07:27:56;13.30;99.90
22940;DHT22;11636;52.086;5.090;2023-05-10T07:30:50;13.30;99.90
22940;DHT22;11636;52.086;5.090;2023-05-10T07:33:37;13.40;99.90
22940;DHT22;11636;52.086;5.090;2023-05-10T07:36:31;13.40;99.90
22940;DHT22;11636;52.086;5.090;2023-05-10T07:39:19;13.40;99.90
22940;DHT22;11636;52.086;5.090;2023-05-10T07:42:14;13.50;99.90
22940;DHT22;11636;52.086;5.090;2023-05-10T07:45:08;13.60;99.90
22940;DHT22;11636;52.086;5.090;2023-05-10T07:48:02;13.50;99.90
22940;DHT22;11636;52.086;5.090;2023-05-10T07:50:49;13.50;99.90
22940;DHT22;11636;52.086;5.090;2023-05-10T07:53:44;13.50;99.90
22940;DHT22;11636;52.086;5.090;2023-05-10T07:56:31;13.60;99.90
22940;DHT22;11636;52.086;5.090;2023-05-10T07:59:26;13.70;99.90
22940;DHT22;11636;52.086;5.090;2023-05-10T08:02:20;13.70;99.90
22940;DHT22;11636;52.086;5.090;2023-05-10T08:05:14;13.80;99.90
22940;DHT22;11636;52.086;5.090;2023-05-10T08:08:02;13.80;99.90
22940;DHT22;11636;52.086;5.090;2023-05-10T08:10:56;14.00;99.90
22940;DHT22;11636;52.086;5.090;2023-05-10T08:13:47;14.10;99.90
22940;DHT22;11636;52.086;5.090;2023-05-10T08:16:41;14.20;99.90
22940;DHT22;11636;52.086;5.090;2023-05-10T08:19:35;14.10;99.90
22940;DHT22;11636;52.086;5.090;2023-05-10T08:22:29;14.10;99.90
22940;DHT22;11636;52.086;5.090;2023-05-10T08:25:16;14.10;99.90
22940;DHT22;11636;52.086;5.090;2023-05-10T08:28:10;14.10;99.90
22940;DHT22;11636;52.086;5.090;2023-05-10T08:30:58;14.10;99.90
22940;DHT22;11636;52.086;5.090;2023-05-10T08:33:52;14.20;99.90
22940;DHT22;11636;52.086;5.090;2023-05-10T08:36:39;14.20;99.90
22940;DHT22;11636;52.086;5.090;2023-05-10T08:39:36;14.20;99.90
22940;DHT22;11636;52.086;5.090;2023-05-10T08:42:31;14.10;99.90
22940;DHT22;11636;52.086;5.090;2023-05-10T08:45:32;14.00;99.90
22940;DHT22;11636;52.086;5.090;2023-05-10T08:48:21;14.00;99.90
22940;DHT22;11636;52.086;5.090;2023-05-10T08:51:19;14.00;99.90
22940;DHT22;11636;52.086;5.090;2023-05-10T08:54:13;14.10;99.90
22940;DHT22;11636;52.086;5.090;2023-05-10T08:57:07;14.10;99.90
22940;DHT22;11636;52.086;5.090;2023-05-10T08:59:54;14.20;99.90
22940;DHT22;11636;52.086;5.090;2023-05-10T09:02:49;14.20;99.90
22940;DHT22;11636;52.086;5.090;2023-05-10T09:05:37;14.30;99.90
22940;DHT22;11636;52.086;5.090;2023-05-10T09:08:31;14.50;99.90
22940;DHT22;11636;52.086;5.090;2023-05-10T09:11:20;14.80;99.90
22940;DHT22;11636;52.086;5.090;2023-05-10T09:14:15;15.00;99.90
22940;DHT22;11636;52.086;5.090;2023-05-10T09:17:02;15.10;99.90
22940;DHT22;11636;52.086;5.090;2023-05-10T09:20:03;15.10;99.90
22940;DHT22;11636;52.086;5.090;2023-05-10T09:22:53;15.00;99.90
22940;DHT22;11636;52.086;5.090;2023-05-10T09:25:56;14.90;99.90
22940;DHT22;11636;52.086;5.090;2023-05-10T09:28:54;14.90;99.90
22940;DHT22;11636;52.086;5.090;2023-05-10T09:31:50;14.90;99.90
22940;DHT22;11636;52.086;5.090;2023-05-10T09:34:38;15.00;99.90
22940;DHT22;11636;52.086;5.090;2023-05-10T09:37:34;15.00;99.90
22940;DHT22;11636;52.086;5.090;2023-05-10T09:40:29;15.10;99.90
22940;DHT22;11636;52.086;5.090;2023-05-10T09:43:16;15.00;99.90
22940;DHT22;11636;52.086;5.090;2023-05-10T09:46:10;14.90;99.90
22940;DHT22;11636;52.086;5.090;2023-05-10T09:49:05;15.00;99.90
22940;DHT22;11636;52.086;5.090;2023-05-10T09:52:07;14.90;99.90
22940;DHT22;11636;52.086;5.090;2023-05-10T09:55:01;14.90;99.90
22940;DHT22;11636;52.086;5.090;2023-05-10T09:58:00;14.80;99.90
22940;DHT22;11636;52.086;5.090;2023-05-10T10:00:47;14.80;99.90
22940;DHT22;11636;52.086;5.090;2023-05-10T10:03:44;14.80;99.90
22940;DHT22;11636;52.086;5.090;2023-05-10T10:06:36;14.80;99.90
22940;DHT22;11636;52.086;5.090;2023-05-10T10:09:32;14.80;99.90
22940;DHT22;11636;52.086;5.090;2023-05-10T10:12:19;14.80;99.90
22940;DHT22;11636;52.086;5.090;2023-05-10T10:15:14;14.90;99.90
22940;DHT22;11636;52.086;5.090;2023-05-10T10:18:03;14.90;99.90
22940;DHT22;11636;52.086;5.090;2023-05-10T10:20:59;14.80;99.90
22940;DHT22;11636;52.086;5.090;2023-05-10T10:23:53;14.80;99.90
22940;DHT22;11636;52.086;5.090;2023-05-10T10:26:47;14.90;99.90
22940;DHT22;11636;52.086;5.090;2023-05-10T10:29:51;15.00;99.90
22940;DHT22;11636;52.086;5.090;2023-05-10T10:35:59;15.50;99.90
22940;DHT22;11636;52.086;5.090;2023-05-10T10:38:54;15.80;99.90
22940;DHT22;11636;52.086;5.090;2023-05-10T10:41:56;15.80;99.90
22940;DHT22;11636;52.086;5.090;2023-05-10T10:45:11;16.10;99.90
22940;DHT22;11636;52.086;5.090;2023-05-10T10:48:24;16.60;99.90
22940;DHT22;11636;52.086;5.090;2023-05-10T10:51:18;16.80;99.90
22940;DHT22;11636;52.086;5.090;2023-05-10T10:54:12;16.80;99.90
22940;DHT22;11636;52.086;5.090;2023-05-10T10:57:13;16.80;99.90
22940;DHT22;11636;52.086;5.090;2023-05-10T11:00:20;16.90;99.90
22940;DHT22;11636;52.086;5.090;2023-05-10T11:03:15;16.80;99.90
22940;DHT22;11636;52.086;5.090;2023-05-10T11:06:12;16.70;99.90
22940;DHT22;11636;52.086;5.090;2023-05-10T11:09:11;16.40;99.90
22940;DHT22;11636;52.086;5.090;2023-05-10T11:11:58;16.20;99.90
22940;DHT22;11636;52.086;5.090;2023-05-10T11:14:57;16.00;99.90
22940;DHT22;11636;52.086;5.090;2023-05-10T11:17:51;15.90;99.90
22940;DHT22;11636;52.086;5.090;2023-05-10T11:20:39;15.90;99.90
22940;DHT22;11636;52.086;5.090;2023-05-10T11:23:49;16.00;99.90
22940;DHT22;11636;52.086;5.090;2023-05-10T11:26:43;16.20;99.90
22940;DHT22;11636;52.086;5.090;2023-05-10T11:29:30;16.30;99.90
22940;DHT22;11636;52.086;5.090;2023-05-10T11:32:24;16.60;99.90
22940;DHT22;11636;52.086;5.090;2023-05-10T11:35:18;16.80;99.90
22940;DHT22;11636;52.086;5.090;2023-05-10T11:38:10;17.00;99.90
22940;DHT22;11636;52.086;5.090;2023-05-10T11:41:04;17.00;99.90
22940;DHT22;11636;52.086;5.090;2023-05-10T11:43:55;17.10;99.90
22940;DHT22;11636;52.086;5.090;2023-05-10T11:46:49;17.00;99.90
22940;DHT22;11636;52.086;5.090;2023-05-10T11:49:36;16.80;99.90
22940;DHT22;11636;52.086;5.090;2023-05-10T11:52:35;16.70;99.90
22940;DHT22;11636;52.086;5.090;2023-05-10T11:55:23;16.60;99.90
22940;DHT22;11636;52.086;5.090;2023-05-10T11:58:20;16.40;99.90
22940;DHT22;11636;52.086;5.090;2023-05-10T12:01:09;16.20;99.90
22940;DHT22;11636;52.086;5.090;2023-05-10T12:04:03;16.10;99.90
22940;DHT22;11636;52.086;5.090;2023-05-10T12:06:51;16.00;99.90
22940;DHT22;11636;52.086;5.090;2023-05-10T12:09:44;15.90;99.90
22940;DHT22;11636;52.086;5.090;2023-05-10T12:12:43;15.80;99.90
22940;DHT22;11636;52.086;5.090;2023-05-10T12:15:37;15.60;99.90
22940;DHT22;11636;52.086;5.090;2023-05-10T12:18:24;15.40;99.90
22940;DHT22;11636;52.086;5.090;2023-05-10T12:21:20;15.20;99.90
22940;DHT22;11636;52.086;5.090;2023-05-10T12:24:14;14.50;99.90
22940;DHT22;11636;52.086;5.090;2023-05-10T12:27:05;14.00;99.90
22940;DHT22;11636;52.086;5.090;2023-05-10T12:30:02;13.80;99.90
22940;DHT22;11636;52.086;5.090;2023-05-10T12:33:11;13.50;99.90
22940;DHT22;11636;52.086;5.090;2023-05-10T12:36:05;13.30;99.90
22940;DHT22;11636;52.086;5.090;2023-05-10T12:39:02;13.20;99.90
22940;DHT22;11636;52.086;5.090;2023-05-10T12:41:56;13.10;99.90
22940;DHT22;11636;52.086;5.090;2023-05-10T12:44:43;13.10;99.90
22940;DHT22;11636;52.086;5.090;2023-05-10T12:47:37;13.10;99.90
22940;DHT22;11636;52.086;5.090;2023-05-10T12:50:28;13.10;99.90
22940;DHT22;11636;52.086;5.090;2023-05-10T12:53:21;13.10;99.90
22940;DHT22;11636;52.086;5.090;2023-05-10T12:56:08;13.10;99.90
22940;DHT22;11636;52.086;5.090;2023-05-10T12:59:02;13.20;99.90
22940;DHT22;11636;52.086;5.090;2023-05-10T13:01:49;13.20;99.90
22940;DHT22;11636;52.086;5.090;2023-05-10T13:04:44;13.30;99.90
22940;DHT22;11636;52.086;5.090;2023-05-10T13:07:31;13.30;99.90
22940;DHT22;11636;52.086;5.090;2023-05-10T13:10:25;13.30;99.90
22940;DHT22;11636;52.086;5.090;2023-05-10T13:13:19;13.30;99.90
22940;DHT22;11636;52.086;5.090;2023-05-10T13:16:06;13.30;99.90
22940;DHT22;11636;52.086;5.090;2023-05-10T13:19:00;13.40;99.90
22940;DHT22;11636;52.086;5.090;2023-05-10T13:21:54;13.40;99.90
22940;DHT22;11636;52.086;5.090;2023-05-10T13:24:48;13.50;99.90
22940;DHT22;11636;52.086;5.090;2023-05-10T13:27:42;13.40;99.90
22940;DHT22;11636;52.086;5.090;2023-05-10T13:30:36;13.50;99.90
22940;DHT22;11636;52.086;5.090;2023-05-10T13:33:23;13.50;99.90
22940;DHT22;11636;52.086;5.090;2023-05-10T13:36:17;13.50;99.90
22940;DHT22;11636;52.086;5.090;2023-05-10T13:39:04;13.40;99.90
22940;DHT22;11636;52.086;5.090;2023-05-10T13:41:58;13.60;99.90
22940;DHT22;11636;52.086;5.090;2023-05-10T13:44:45;13.60;99.90
22940;DHT22;11636;52.086;5.090;2023-05-10T13:47:39;13.60;99.90
22940;DHT22;11636;52.086;5.090;2023-05-10T13:50:26;13.60;99.90
22940;DHT22;11636;52.086;5.090;2023-05-10T13:53:20;13.70;99.90
22940;DHT22;11636;52.086;5.090;2023-05-10T13:56:08;13.70;99.90
22940;DHT22;11636;52.086;5.090;2023-05-10T13:59:01;13.70;99.90
22940;DHT22;11636;52.086;5.090;2023-05-10T14:01:55;13.80;99.90
22940;DHT22;11636;52.086;5.090;2023-05-10T14:04:42;13.70;99.90
22940;DHT22;11636;52.086;5.090;2023-05-10T14:07:36;13.70;99.90
22940;DHT22;11636;52.086;5.090;2023-05-10T14:10:23;13.80;99.90
22940;DHT22;11636;52.086;5.090;2023-05-10T14:13:17;13.70;99.90
22940;DHT22;11636;52.086;5.090;2023-05-10T14:16:04;13.70;99.90
22940;DHT22;11636;52.086;5.090;2023-05-10T14:18:58;13.70;99.90
22940;DHT22;11636;52.086;5.090;2023-05-10T14:21:45;13.80;99.90
22940;DHT22;11636;52.086;5.090;2023-05-10T14:24:39;13.80;99.90
22940;DHT22;11636;52.086;5.090;2023-05-10T14:27:33;13.70;99.90
22940;DHT22;11636;52.086;5.090;2023-05-10T14:30:27;13.80;99.90
22940;DHT22;11636;52.086;5.090;2023-05-10T14:33:21;13.90;99.90
22940;DHT22;11636;52.086;5.090;2023-05-10T14:36:08;13.90;99.90
22940;DHT22;11636;52.086;5.090;2023-05-10T14:39:02;13.90;99.90
22940;DHT22;11636;52.086;5.090;2023-05-10T14:41:49;14.00;99.90
22940;DHT22;11636;52.086;5.090;2023-05-10T14:44:44;14.00;99.90
22940;DHT22;11636;52.086;5.090;2023-05-10T14:47:38;14.00;99.90
22940;DHT22;11636;52.086;5.090;2023-05-10T14:50:25;14.10;99.90
22940;DHT22;11636;52.086;5.090;2023-05-10T14:53:23;14.10;99.90
22940;DHT22;11636;52.086;5.090;2023-05-10T14:56:16;14.10;99.90
22940;DHT22;11636;52.086;5.090;2023-05-10T14:59:10;14.10;99.90
22940;DHT22;11636;52.086;5.090;2023-05-10T15:01:58;13.90;99.90
22940;DHT22;11636;52.086;5.090;2023-05-10T15:04:53;13.80;99.90
22940;DHT22;11636;52.086;5.090;2023-05-10T15:07:47;13.80;99.90
22940;DHT22;11636;52.086;5.090;2023-05-10T15:10:40;13.80;99.90
22940;DHT22;11636;52.086;5.090;2023-05-10T15:13:27;13.80;99.90
22940;DHT22;11636;52.086;5.090;2023-05-10T15:16:21;13.90;99.90
22940;DHT22;11636;52.086;5.090;2023-05-10T15:19:08;13.90;99.90
22940;DHT22;11636;52.086;5.090;2023-05-10T15:22:04;13.90;99.90
22940;DHT22;11636;52.086;5.090;2023-05-10T15:24:58;13.90;99.90
22940;DHT22;11636;52.086;5.090;2023-05-10T15:27:46;13.80;99.90
22940;DHT22;11636;52.086;5.090;2023-05-10T15:30:39;13.90;99.90
22940;DHT22;11636;52.086;5.090;2023-05-10T15:33:26;13.80;99.90
22940;DHT22;11636;52.086;5.090;2023-05-10T15:36:20;13.90;99.90
22940;DHT22;11636;52.086;5.090;2023-05-10T15:39:08;13.80;99.90
22940;DHT22;11636;52.086;5.090;2023-05-10T15:42:02;13.90;99.90
22940;DHT22;11636;52.086;5.090;2023-05-10T15:44:58;13.80;99.90
22940;DHT22;11636;52.086;5.090;2023-05-10T15:47:45;13.80;99.90
22940;DHT22;11636;52.086;5.090;2023-05-10T15:50:39;13.80;99.90
22940;DHT22;11636;52.086;5.090;2023-05-10T15:53:27;13.80;99.90
22940;DHT22;11636;52.086;5.090;2023-05-10T15:56:20;13.90;99.90
22940;DHT22;11636;52.086;5.090;2023-05-10T15:59:08;14.00;99.90
22940;DHT22;11636;52.086;5.090;2023-05-10T16:02:03;14.00;99.90
22940;DHT22;11636;52.086;5.090;2023-05-10T16:04:57;14.00;99.90
22940;DHT22;11636;52.086;5.090;2023-05-10T16:07:51;14.10;99.90
22940;DHT22;11636;52.086;5.090;2023-05-10T16:10:45;14.10;99.90
22940;DHT22;11636;52.086;5.090;2023-05-10T16:13:39;14.20;99.90
22940;DHT22;11636;52.086;5.090;2023-05-10T16:16:34;14.30;99.90
22940;DHT22;11636;52.086;5.090;2023-05-10T16:19:27;14.40;99.90
22940;DHT22;11636;52.086;5.090;2023-05-10T16:22:21;14.60;99.90
22940;DHT22;11636;52.086;5.090;2023-05-10T16:25:19;14.80;99.90
22940;DHT22;11636;52.086;5.090;2023-05-10T16:28:07;15.00;99.90
22940;DHT22;11636;52.086;5.090;2023-05-10T16:31:00;15.20;99.90
22940;DHT22;11636;52.086;5.090;2023-05-10T16:33:54;15.40;99.90
22940;DHT22;11636;52.086;5.090;2023-05-10T16:36:41;15.40;99.90
22940;DHT22;11636;52.086;5.090;2023-05-10T16:39:35;15.20;99.90
22940;DHT22;11636;52.086;5.090;2023-05-10T16:42:29;15.00;99.90
22940;DHT22;11636;52.086;5.090;2023-05-10T16:45:23;14.90;99.90
22940;DHT22;11636;52.086;5.090;2023-05-10T16:48:11;14.90;99.90
22940;DHT22;11636;52.086;5.090;2023-05-10T16:51:05;14.90;99.90
22940;DHT22;11636;52.086;5.090;2023-05-10T16:53:53;15.00;99.90
22940;DHT22;11636;52.086;5.090;2023-05-10T16:56:47;15.00;99.90
22940;DHT22;11636;52.086;5.090;2023-05-10T16:59:41;14.90;99.90
22940;DHT22;11636;52.086;5.090;2023-05-10T17:02:28;14.90;99.90
22940;DHT22;11636;52.086;5.090;2023-05-10T17:05:22;14.80;99.90
22940;DHT22;11636;52.086;5.090;2023-05-10T17:08:16;14.80;99.90
22940;DHT22;11636;52.086;5.090;2023-05-10T17:11:10;14.70;99.90
22940;DHT22;11636;52.086;5.090;2023-05-10T17:14:04;14.60;99.90
22940;DHT22;11636;52.086;5.090;2023-05-10T17:16:58;14.70;99.90
22940;DHT22;11636;52.086;5.090;2023-05-10T17:19:52;14.70;99.90
22940;DHT22;11636;52.086;5.090;2023-05-10T17:22:46;14.70;99.90
22940;DHT22;11636;52.086;5.090;2023-05-10T17:25:40;14.60;99.90
22940;DHT22;11636;52.086;5.090;2023-05-10T17:28:28;14.50;99.90
22940;DHT22;11636;52.086;5.090;2023-05-10T17:31:21;14.50;99.90
22940;DHT22;11636;52.086;5.090;2023-05-10T17:34:15;14.50;99.90
22940;DHT22;11636;52.086;5.090;2023-05-10T17:37:03;14.50;99.90
22940;DHT22;11636;52.086;5.090;2023-05-10T17:40:00;14.50;99.90
22940;DHT22;11636;52.086;5.090;2023-05-10T17:42:49;14.50;99.90
22940;DHT22;11636;52.086;5.090;2023-05-10T17:45:42;14.50;99.90
22940;DHT22;11636;52.086;5.090;2023-05-10T17:48:32;14.40;99.90
22940;DHT22;11636;52.086;5.090;2023-05-10T17:51:26;14.40;99.90
22940;DHT22;11636;52.086;5.090;2023-05-10T17:54:14;14.40;99.90
22940;DHT22;11636;52.086;5.090;2023-05-10T17:57:08;14.50;99.90
22940;DHT22;11636;52.086;5.090;2023-05-10T18:00:03;14.50;99.90
22940;DHT22;11636;52.086;5.090;2023-05-10T18:02:52;14.50;99.90
22940;DHT22;11636;52.086;5.090;2023-05-10T18:05:46;14.60;99.90
22940;DHT22;11636;52.086;5.090;2023-05-10T18:08:34;14.60;99.90
22940;DHT22;11636;52.086;5.090;2023-05-10T18:11:27;14.60;99.90
22940;DHT22;11636;52.086;5.090;2023-05-10T18:14:15;14.60;99.90
22940;DHT22;11636;52.086;5.090;2023-05-10T18:17:26;14.60;99.90
22940;DHT22;11636;52.086;5.090;2023-05-10T18:20:20;14.60;99.90
22940;DHT22;11636;52.086;5.090;2023-05-10T18:23:07;14.70;99.90
22940;DHT22;11636;52.086;5.090;2023-05-10T18:26:01;14.70;99.90
22940;DHT22;11636;52.086;5.090;2023-05-10T18:28:56;14.70;99.90
22940;DHT22;11636;52.086;5.090;2023-05-10T18:31:50;14.70;99.90
22940;DHT22;11636;52.086;5.090;2023-05-10T18:34:43;14.60;99.90
22940;DHT22;11636;52.086;5.090;2023-05-10T18:37:31;14.50;99.90
22940;DHT22;11636;52.086;5.090;2023-05-10T18:40:26;14.40;99.90